Terminal Aerodrome Forecast
Issued by NWS

Home | Current Version | Previous Version | Text Only | Print | Product List | Glossary On
Versions: 1 2 3 4 5 6 7 8 9 10 11 12 13 14 15 16 17 18 19 20 21 22 23 24 25 26 27 28
000
FTUS45 KGJT 250525
TAFCNY
TAF
KCNY 250525Z 2506/2606 16015KT P6SM SCT120 BKN150
     FM250800 15008KT P6SM SCT150
     FM251300 14005KT P6SM SCT150
     FM251900 25010G20KT P6SM VCTS SCT100CB BKN140
     FM260200 10006KT P6SM BKN180=

USA.gov is the U.S. government's official web portal to all federal, state and local government web resources and services.